createdAt,value
2018-08-18T00:02:11.021Z,18.60
2018-08-18T00:04:39.610Z,18.50
2018-08-18T00:07:08.211Z,18.50
2018-08-18T00:09:36.703Z,18.50
2018-08-18T00:12:05.274Z,18.50
2018-08-18T00:14:33.818Z,18.50
2018-08-18T00:17:02.306Z,18.60
2018-08-18T00:19:30.838Z,18.50
2018-08-18T00:21:59.719Z,18.40
2018-08-18T00:24:28.211Z,18.40
2018-08-18T00:26:56.687Z,18.30
2018-08-18T00:29:25.220Z,18.40
2018-08-18T00:31:53.694Z,18.40
2018-08-18T00:34:22.199Z,18.40
2018-08-18T00:36:51.886Z,18.50
2018-08-18T00:39:20.367Z,18.40
2018-08-18T00:41:48.914Z,18.40
2018-08-18T00:44:17.482Z,18.40
2018-08-18T00:46:45.991Z,18.50
2018-08-18T00:49:14.474Z,18.40
2018-08-18T00:51:42.945Z,18.40
2018-08-18T00:54:11.451Z,18.30
2018-08-18T00:56:41.686Z,18.30
2018-08-18T00:59:10.203Z,18.30
2018-08-18T01:01:38.719Z,18.20
2018-08-18T01:04:09.250Z,18.20
2018-08-18T01:06:39.064Z,18.20
2018-08-18T01:09:11.533Z,18.30
2018-08-18T01:11:40.331Z,18.20
2018-08-18T01:14:15.361Z,18.10
2018-08-18T01:16:48.799Z,18.20
2018-08-18T01:19:18.112Z,18.30
2018-08-18T01:21:51.984Z,18.10
2018-08-18T01:24:21.313Z,18.20
2018-08-18T01:26:50.347Z,18.10
2018-08-18T01:29:19.056Z,18.10
2018-08-18T01:31:47.988Z,18.20
2018-08-18T01:34:16.479Z,18.30
2018-08-18T01:36:44.996Z,18.30
2018-08-18T01:39:14.736Z,18.20
2018-08-18T01:41:43.442Z,18.10
2018-08-18T01:44:15.154Z,18.10
2018-08-18T01:46:45.378Z,18.00
2018-08-18T01:49:34.988Z,18.00
2018-08-18T01:52:13.996Z,18.10
2018-08-18T01:54:43.370Z,18.00
2018-08-18T01:57:12.828Z,18.20
2018-08-18T01:59:42.643Z,18.20
2018-08-18T02:02:16.546Z,18.20
2018-08-18T02:04:45.542Z,18.30
2018-08-18T02:07:29.781Z,18.30
2018-08-18T02:09:58.498Z,18.20
2018-08-18T02:12:27.523Z,18.20
2018-08-18T02:14:56.439Z,18.20
2018-08-18T02:17:31.151Z,18.10
2018-08-18T02:20:00.045Z,18.00
2018-08-18T02:22:29.182Z,18.00
2018-08-18T02:24:57.674Z,18.00
2018-08-18T02:27:26.438Z,18.10
2018-08-18T02:30:06.792Z,18.10
2018-08-18T02:32:37.368Z,18.10
2018-08-18T02:35:06.755Z,18.00
2018-08-18T02:37:35.526Z,17.90
2018-08-18T02:40:06.195Z,17.90
2018-08-18T02:42:34.835Z,17.80
2018-08-18T02:45:03.708Z,17.80
2018-08-18T02:47:32.204Z,17.80
2018-08-18T02:50:00.814Z,17.80
2018-08-18T02:52:32.858Z,17.90
2018-08-18T02:55:04.535Z,17.80
2018-08-18T02:57:34.349Z,17.80
2018-08-18T03:00:05.098Z,17.80
2018-08-18T03:02:33.845Z,17.80
2018-08-18T03:05:02.409Z,17.80
2018-08-18T03:07:35.195Z,17.60
2018-08-18T03:10:10.805Z,17.40
2018-08-18T03:12:44.599Z,17.50
2018-08-18T03:15:26.715Z,17.30
2018-08-18T03:17:55.215Z,17.20
2018-08-18T03:20:23.721Z,17.30
2018-08-18T03:22:52.195Z,17.50
2018-08-18T03:25:20.886Z,17.30
2018-08-18T03:27:49.408Z,17.20
2018-08-18T03:30:17.882Z,17.20
2018-08-18T03:32:46.362Z,17.10
2018-08-18T03:35:14.904Z,17.20
2018-08-18T03:37:43.390Z,17.20
2018-08-18T03:40:11.976Z,17.10
2018-08-18T03:42:42.330Z,17.10
2018-08-18T03:45:10.795Z,17.10
2018-08-18T03:47:39.271Z,17.10
2018-08-18T03:50:07.777Z,17.00
2018-08-18T03:52:36.242Z,16.80
2018-08-18T03:55:04.780Z,16.70
2018-08-18T03:57:45.530Z,16.60
2018-08-18T04:00:15.349Z,16.60
2018-08-18T04:02:43.795Z,16.60
2018-08-18T04:05:12.362Z,16.50
2018-08-18T04:07:47.665Z,16.40
2018-08-18T04:10:18.299Z,16.30
2018-08-18T04:12:46.862Z,16.30
2018-08-18T04:15:15.395Z,16.20
2018-08-18T04:17:43.838Z,16.30
2018-08-18T04:20:12.367Z,16.30
2018-08-18T04:22:40.830Z,16.40
2018-08-18T04:25:09.413Z,16.40
2018-08-18T04:27:44.619Z,16.30
2018-08-18T04:30:16.091Z,16.40
2018-08-18T04:32:53.896Z,16.30
2018-08-18T04:35:24.647Z,16.40
2018-08-18T04:37:54.235Z,16.50
2018-08-18T04:40:23.230Z,16.40
2018-08-18T04:42:51.766Z,16.50
2018-08-18T04:45:21.314Z,16.40
2018-08-18T04:47:49.942Z,16.50
2018-08-18T04:50:18.627Z,16.50
2018-08-18T04:52:47.063Z,16.70
2018-08-18T04:55:16.110Z,16.90
2018-08-18T04:57:45.042Z,17.10
2018-08-18T05:00:14.448Z,17.10
2018-08-18T05:02:48.275Z,17.00
2018-08-18T05:05:18.848Z,16.90
2018-08-18T05:07:50.395Z,16.80
2018-08-18T05:10:20.066Z,16.80
2018-08-18T05:12:48.566Z,16.90
2018-08-18T05:15:18.366Z,16.90
2018-08-18T05:17:47.968Z,16.80
2018-08-18T05:20:22.522Z,16.80
2018-08-18T05:22:51.592Z,16.80
2018-08-18T05:25:26.967Z,16.90
2018-08-18T05:27:55.931Z,16.90
2018-08-18T05:30:25.143Z,17.00
2018-08-18T05:32:53.623Z,17.20
2018-08-18T05:35:22.117Z,17.20
2018-08-18T05:37:50.583Z,17.30
2018-08-18T05:40:19.197Z,17.40
2018-08-18T05:42:47.830Z,17.60
2018-08-18T05:45:28.255Z,17.60
2018-08-18T05:47:56.755Z,17.60
2018-08-18T05:50:26.353Z,17.70
2018-08-18T05:52:59.488Z,17.70
2018-08-18T05:55:28.446Z,17.80
2018-08-18T05:57:57.062Z,17.90
2018-08-18T06:00:26.004Z,18.00
2018-08-18T06:02:58.556Z,18.00
2018-08-18T06:05:29.355Z,18.00
2018-08-18T06:07:58.333Z,18.30
2018-08-18T06:10:26.837Z,18.40
2018-08-18T06:12:55.643Z,18.50
2018-08-18T06:15:24.643Z,18.50
2018-08-18T06:17:53.144Z,18.40
2018-08-18T06:20:21.622Z,18.40
2018-08-18T06:22:50.135Z,18.40
2018-08-18T06:25:18.745Z,18.40
2018-08-18T06:27:47.234Z,18.40
2018-08-18T06:30:15.758Z,18.40
2018-08-18T06:32:44.231Z,18.50
2018-08-18T06:35:12.793Z,18.60
2018-08-18T06:37:43.845Z,18.70
2018-08-18T06:40:12.437Z,18.70
2018-08-18T06:42:43.383Z,18.80
2018-08-18T06:45:15.176Z,18.80
2018-08-18T06:47:44.316Z,18.80
2018-08-18T06:50:15.597Z,18.80
2018-08-18T06:52:45.200Z,18.70
2018-08-18T06:55:20.667Z,18.80
2018-08-18T06:57:53.748Z,19.00
2018-08-18T07:00:23.893Z,19.20
2018-08-18T07:02:52.459Z,19.30
2018-08-18T07:05:21.331Z,19.20
2018-08-18T07:07:50.632Z,19.50
2018-08-18T07:10:35.954Z,19.70
2018-08-18T07:13:06.988Z,19.90
2018-08-18T07:15:37.699Z,20.00
2018-08-18T07:18:07.838Z,20.00
2018-08-18T07:20:36.479Z,20.40
2018-08-18T07:23:05.353Z,20.60
2018-08-18T07:25:36.076Z,20.80
2018-08-18T07:28:09.547Z,21.00
2018-08-18T07:30:39.600Z,21.10
2018-08-18T07:33:08.174Z,21.10
2018-08-18T07:35:36.668Z,21.00
2018-08-18T07:38:05.363Z,20.90
2018-08-18T07:40:38.087Z,21.00
2018-08-18T07:43:07.897Z,20.90
2018-08-18T07:45:37.303Z,20.90
2018-08-18T07:48:06.974Z,21.10
2018-08-18T07:50:36.061Z,21.10
2018-08-18T07:53:04.978Z,21.00
2018-08-18T07:55:34.425Z,20.90
2018-08-18T07:58:04.530Z,21.00
2018-08-18T08:00:35.367Z,20.90
2018-08-18T08:03:04.376Z,20.90
2018-08-18T08:05:33.338Z,20.90
2018-08-18T08:08:03.504Z,20.90
2018-08-18T08:10:32.329Z,21.20
2018-08-18T08:13:01.169Z,21.30
2018-08-18T08:15:29.786Z,21.50
2018-08-18T08:17:58.557Z,21.60
2018-08-18T08:20:27.275Z,21.60
2018-08-18T08:22:56.611Z,21.80
2018-08-18T08:25:25.437Z,22.00
2018-08-18T08:27:55.583Z,22.30
2018-08-18T08:30:25.462Z,23.90
2018-08-18T08:32:54.315Z,25.50
2018-08-18T08:35:22.922Z,26.40
2018-08-18T08:37:53.140Z,26.20
2018-08-18T08:40:23.554Z,26.80
2018-08-18T08:42:52.250Z,28.10
2018-08-18T08:45:22.752Z,28.70
2018-08-18T08:47:51.503Z,29.40
2018-08-18T08:50:22.098Z,29.60
2018-08-18T08:52:54.255Z,29.00
2018-08-18T08:55:24.462Z,29.30
2018-08-18T08:57:53.118Z,28.90
2018-08-18T09:00:22.044Z,28.40
2018-08-18T09:02:50.544Z,27.90
2018-08-18T09:05:19.930Z,27.00
2018-08-18T09:07:48.713Z,28.00
2018-08-18T09:10:18.008Z,28.20
2018-08-18T09:12:46.622Z,28.60
2018-08-18T09:15:16.839Z,28.70
2018-08-18T09:17:45.641Z,30.00
2018-08-18T09:20:17.062Z,31.60
2018-08-18T09:22:53.946Z,31.80
2018-08-18T09:25:22.428Z,32.00
2018-08-18T09:27:53.729Z,32.10
2018-08-18T09:30:23.802Z,31.00
2018-08-18T09:32:52.427Z,30.50
2018-08-18T09:35:20.959Z,29.70
2018-08-18T09:37:54.567Z,29.30
2018-08-18T09:40:23.166Z,28.70
2018-08-18T09:42:52.017Z,29.10
2018-08-18T09:45:20.522Z,30.10
2018-08-18T09:47:49.113Z,32.00
2018-08-18T09:50:17.723Z,32.30
2018-08-18T09:52:46.551Z,33.20
2018-08-18T09:55:15.299Z,33.70
2018-08-18T09:57:43.906Z,34.40
2018-08-18T10:00:15.197Z,35.40
2018-08-18T10:02:44.165Z,35.40
2018-08-18T10:05:12.979Z,35.20
2018-08-18T10:07:41.930Z,35.10
2018-08-18T10:10:11.931Z,35.20
2018-08-18T10:12:40.539Z,33.70
2018-08-18T10:15:12.288Z,34.20
2018-08-18T10:17:41.143Z,36.10
2018-08-18T10:20:09.824Z,37.00
2018-08-18T10:22:39.270Z,37.40
2018-08-18T10:25:07.907Z,36.80
2018-08-18T10:27:36.691Z,37.20
2018-08-18T10:30:05.468Z,37.00
2018-08-18T10:32:39.554Z,38.10
2018-08-18T10:35:08.215Z,38.10
2018-08-18T10:37:37.086Z,37.70
2018-08-18T10:40:10.998Z,37.80
2018-08-18T10:42:42.643Z,36.90
2018-08-18T10:45:11.363Z,38.00
2018-08-18T10:47:39.878Z,37.50
2018-08-18T10:51:22.791Z,36.50
2018-08-18T10:53:52.176Z,36.10
2018-08-18T10:56:21.092Z,36.20
2018-08-18T10:59:06.083Z,36.30
2018-08-18T11:01:35.045Z,36.50
2018-08-18T11:04:07.799Z,36.80
2018-08-18T11:06:36.379Z,36.90
2018-08-18T11:09:06.063Z,35.80
2018-08-18T11:11:34.656Z,34.70
2018-08-18T11:14:03.205Z,33.50
2018-08-18T11:16:31.863Z,32.80
2018-08-18T11:19:00.379Z,32.20
2018-08-18T11:21:34.060Z,31.20
2018-08-18T11:24:05.567Z,31.60
2018-08-18T11:26:37.933Z,32.20
2018-08-18T11:29:15.683Z,32.40
2018-08-18T11:31:44.947Z,31.90
2018-08-18T11:34:13.629Z,30.80
2018-08-18T11:36:57.792Z,30.70
2018-08-18T11:39:26.416Z,30.80
2018-08-18T11:41:56.261Z,30.60
2018-08-18T11:44:24.795Z,30.10
2018-08-18T11:46:53.328Z,30.20
2018-08-18T11:49:21.849Z,30.30
2018-08-18T11:51:50.330Z,30.60
2018-08-18T11:54:18.863Z,30.60
2018-08-18T11:56:50.464Z,30.60
2018-08-18T11:59:19.020Z,30.50
2018-08-18T12:01:50.480Z,30.40
2018-08-18T12:04:20.694Z,29.60
2018-08-18T12:06:54.738Z,28.80
2018-08-18T12:09:23.552Z,28.80
2018-08-18T12:11:52.437Z,29.10
2018-08-18T12:14:21.398Z,29.50
2018-08-18T12:16:50.392Z,29.90
2018-08-18T12:19:19.041Z,30.00
2018-08-18T12:21:48.001Z,30.00
2018-08-18T12:24:19.047Z,29.70
2018-08-18T12:26:58.775Z,29.20
2018-08-18T12:29:29.529Z,29.40
2018-08-18T12:31:58.370Z,29.40
2018-08-18T12:34:26.971Z,29.70
2018-08-18T12:36:55.773Z,30.00
2018-08-18T12:39:24.163Z,29.90
2018-08-18T12:41:52.801Z,29.80
2018-08-18T12:44:25.532Z,29.90
2018-08-18T12:46:54.099Z,30.10
2018-08-18T12:49:22.634Z,30.30
2018-08-18T12:51:51.288Z,30.50
2018-08-18T12:54:19.975Z,30.30
2018-08-18T12:56:48.494Z,30.30
2018-08-18T12:59:17.231Z,30.40
2018-08-18T13:01:46.971Z,30.50
2018-08-18T13:04:18.116Z,30.30
2018-08-18T13:06:51.363Z,30.60
2018-08-18T13:09:24.319Z,30.70
2018-08-18T13:11:54.268Z,30.50
2018-08-18T13:14:27.910Z,30.10
2018-08-18T13:16:56.615Z,30.30
2018-08-18T13:19:28.238Z,30.30
2018-08-18T13:21:56.775Z,30.10
2018-08-18T13:24:25.347Z,30.10
2018-08-18T13:26:53.842Z,30.10
2018-08-18T13:29:22.442Z,29.80
2018-08-18T13:31:51.765Z,29.70
2018-08-18T13:34:20.328Z,29.90
2018-08-18T13:36:48.873Z,30.10
2018-08-18T13:39:18.715Z,30.30
2018-08-18T13:41:48.155Z,30.30
2018-08-18T13:44:29.337Z,30.20
2018-08-18T13:46:57.859Z,29.80
2018-08-18T13:49:27.271Z,29.70
2018-08-18T13:51:55.850Z,29.40
2018-08-18T13:54:24.360Z,29.60
2018-08-18T13:56:53.005Z,29.70
2018-08-18T13:59:53.553Z,29.60
2018-08-18T14:02:22.088Z,29.70
2018-08-18T14:04:50.553Z,29.90
2018-08-18T14:07:19.077Z,29.80
2018-08-18T14:09:52.105Z,29.60
2018-08-18T14:12:20.639Z,29.10
2018-08-18T14:14:49.584Z,28.80
2018-08-18T14:17:20.694Z,28.50
2018-08-18T14:19:50.034Z,28.50
2018-08-18T14:22:21.119Z,28.80
2018-08-18T14:24:49.843Z,28.60
2018-08-18T14:27:21.131Z,28.70
2018-08-18T14:29:49.670Z,28.60
2018-08-18T14:32:25.450Z,28.90
2018-08-18T14:35:08.495Z,28.90
2018-08-18T14:37:39.237Z,28.80
2018-08-18T14:40:10.856Z,28.70
2018-08-18T14:42:39.396Z,28.80
2018-08-18T14:45:10.025Z,28.50
2018-08-18T14:47:38.549Z,28.60
2018-08-18T14:50:16.515Z,28.60
2018-08-18T14:52:45.883Z,28.80
2018-08-18T14:55:15.051Z,28.60
2018-08-18T14:58:14.622Z,28.50
2018-08-18T15:00:43.149Z,28.60
2018-08-18T15:03:11.650Z,28.90
2018-08-18T15:05:40.157Z,28.90
2018-08-18T15:08:08.715Z,29.10
2018-08-18T15:10:42.274Z,29.10
2018-08-18T15:13:11.732Z,29.10
2018-08-18T15:15:40.438Z,29.10
2018-08-18T15:18:10.162Z,29.10
2018-08-18T15:20:39.611Z,29.00
2018-08-18T15:23:09.168Z,29.20
2018-08-18T15:25:38.726Z,29.10
2018-08-18T15:28:11.315Z,28.90
2018-08-18T15:30:41.021Z,28.90
2018-08-18T15:33:10.882Z,28.70
2018-08-18T15:35:40.469Z,28.70
2018-08-18T15:38:10.060Z,28.60
2018-08-18T15:40:38.629Z,28.60
2018-08-18T15:43:07.228Z,28.60
2018-08-18T15:45:46.675Z,28.60
2018-08-18T15:48:15.231Z,28.60
2018-08-18T15:50:43.844Z,28.50
2018-08-18T15:53:12.306Z,28.50
2018-08-18T15:55:40.790Z,28.60
2018-08-18T15:58:09.366Z,28.60
2018-08-18T16:00:37.835Z,28.70
2018-08-18T16:03:06.368Z,28.60
2018-08-18T16:05:34.892Z,28.40
2018-08-18T16:08:03.383Z,28.30
2018-08-18T16:10:31.870Z,28.30
2018-08-18T16:13:00.340Z,28.20
2018-08-18T16:15:28.798Z,28.30
2018-08-18T16:17:57.379Z,28.20
2018-08-18T16:23:25.752Z,27.80
2018-08-18T16:25:54.527Z,27.50
2018-08-18T16:28:28.261Z,27.40
2018-08-18T16:30:56.816Z,27.50
2018-08-18T16:33:25.324Z,27.30
2018-08-18T16:35:53.787Z,27.30
2018-08-18T16:38:22.326Z,27.20
2018-08-18T16:40:50.909Z,27.20
2018-08-18T16:43:19.511Z,27.10
2018-08-18T16:45:48.029Z,26.90
2018-08-18T16:48:16.545Z,26.90
2018-08-18T16:50:45.027Z,26.80
2018-08-18T16:53:14.453Z,26.80
2018-08-18T16:55:44.282Z,26.70
2018-08-18T16:58:13.000Z,26.50
2018-08-18T17:00:59.821Z,26.30
2018-08-18T17:03:31.014Z,26.20
2018-08-18T17:06:00.823Z,26.00
2018-08-18T17:08:29.681Z,26.00
2018-08-18T17:10:58.518Z,26.00
2018-08-18T17:13:30.730Z,25.90
2018-08-18T17:15:59.271Z,25.70
2018-08-18T17:18:27.985Z,25.70
2018-08-18T17:21:00.732Z,25.60
2018-08-18T17:23:31.116Z,25.60
2018-08-18T17:25:59.640Z,25.40
2018-08-18T17:28:29.628Z,25.20
2018-08-18T17:30:58.235Z,25.20
2018-08-18T17:33:28.083Z,25.20
2018-08-18T17:35:56.708Z,25.10
2018-08-18T17:38:25.328Z,25.00
2018-08-18T17:40:53.812Z,25.00
2018-08-18T17:43:22.389Z,25.00
2018-08-18T17:45:55.208Z,24.90
2018-08-18T17:48:25.202Z,24.80
2018-08-18T17:50:54.437Z,24.70
2018-08-18T17:53:23.110Z,24.60
2018-08-18T17:55:56.746Z,24.50
2018-08-18T17:58:26.218Z,24.40
2018-08-18T18:00:54.703Z,24.40
2018-08-18T18:03:23.502Z,24.40
2018-08-18T18:05:54.161Z,24.20
2018-08-18T18:08:22.724Z,24.10
2018-08-18T18:10:51.502Z,24.00
2018-08-18T18:13:26.054Z,24.00
2018-08-18T18:15:54.794Z,23.90
2018-08-18T18:18:24.575Z,23.70
2018-08-18T18:20:55.507Z,23.60
2018-08-18T18:23:24.382Z,23.50
2018-08-18T18:25:52.899Z,23.40
2018-08-18T18:28:21.429Z,23.60
2018-08-18T18:30:51.843Z,23.50
2018-08-18T18:33:20.838Z,23.40
2018-08-18T18:35:50.062Z,23.20
2018-08-18T18:38:18.552Z,23.00
2018-08-18T18:40:47.054Z,23.00
2018-08-18T18:43:15.535Z,22.80
2018-08-18T18:45:44.119Z,22.70
2018-08-18T18:48:14.810Z,22.70
2018-08-18T18:50:46.872Z,22.60
2018-08-18T18:53:15.400Z,22.50
2018-08-18T18:55:49.821Z,22.30
2018-08-18T18:58:18.371Z,22.30
2018-08-18T19:00:51.058Z,22.30
2018-08-18T19:03:19.679Z,22.20
2018-08-18T19:05:48.967Z,22.00
2018-08-18T19:08:18.894Z,22.00
2018-08-18T19:10:47.892Z,22.10
2018-08-18T19:13:16.529Z,21.90
2018-08-18T19:15:45.135Z,21.90
2018-08-18T19:18:14.338Z,21.80
2018-08-18T19:20:42.972Z,21.70
2018-08-18T19:23:18.771Z,21.70
2018-08-18T19:25:50.522Z,21.60
2018-08-18T19:28:22.527Z,21.60
2018-08-18T19:30:51.019Z,21.60
2018-08-18T19:33:19.914Z,21.60
2018-08-18T19:35:50.467Z,21.60
2018-08-18T19:38:20.205Z,21.60
2018-08-18T19:40:51.287Z,21.60
2018-08-18T19:43:20.907Z,21.70
2018-08-18T19:45:49.890Z,21.80
2018-08-18T19:48:20.309Z,21.80
2018-08-18T19:50:55.216Z,21.80
2018-08-18T19:53:26.877Z,21.80
2018-08-18T19:55:56.678Z,21.80
2018-08-18T19:58:25.915Z,21.90
2018-08-18T20:00:54.630Z,22.00
2018-08-18T20:03:23.667Z,21.90
2018-08-18T20:05:52.283Z,21.80
2018-08-18T20:08:23.094Z,21.80
2018-08-18T20:10:55.521Z,21.90
2018-08-18T20:13:25.570Z,22.00
2018-08-18T20:15:55.483Z,21.90
2018-08-18T20:18:24.044Z,21.90
2018-08-18T20:20:52.531Z,21.80
2018-08-18T20:23:21.685Z,21.80
2018-08-18T20:25:50.960Z,21.90
2018-08-18T20:28:19.434Z,21.80
2018-08-18T20:30:47.957Z,21.80
2018-08-18T20:33:16.478Z,21.70
2018-08-18T20:35:44.948Z,21.70
2018-08-18T20:38:13.509Z,21.80
2018-08-18T20:40:42.028Z,21.70
2018-08-18T20:43:10.538Z,21.70
2018-08-18T20:45:49.116Z,21.60
2018-08-18T20:48:19.588Z,21.60
2018-08-18T20:50:48.078Z,21.60
2018-08-18T20:53:17.371Z,21.60
2018-08-18T20:55:56.788Z,21.60
2018-08-18T20:58:25.802Z,21.60
2018-08-18T21:00:54.286Z,21.50
2018-08-18T21:03:30.562Z,21.40
2018-08-18T21:05:59.105Z,21.40
2018-08-18T21:08:27.791Z,21.40
2018-08-18T21:10:56.253Z,21.40
2018-08-18T21:13:24.993Z,21.30
2018-08-18T21:15:53.871Z,21.30
2018-08-18T21:18:22.436Z,21.30
2018-08-18T21:20:51.003Z,21.40
2018-08-18T21:23:25.143Z,21.30
2018-08-18T21:25:54.056Z,21.30
2018-08-18T21:28:26.399Z,21.30
2018-08-18T21:30:54.924Z,21.30
2018-08-18T21:33:25.570Z,21.20
2018-08-18T21:35:54.245Z,21.20
2018-08-18T21:38:22.759Z,21.10
2018-08-18T21:40:51.251Z,21.20
2018-08-18T21:43:31.706Z,21.20
2018-08-18T21:46:00.270Z,21.20
2018-08-18T21:48:40.672Z,21.20
2018-08-18T21:51:09.762Z,21.30
2018-08-18T21:53:38.491Z,21.20
2018-08-18T21:56:07.100Z,21.20
2018-08-18T21:58:35.683Z,21.30
2018-08-18T22:01:09.603Z,21.30
2018-08-18T22:03:38.321Z,21.20
2018-08-18T22:06:06.937Z,21.20
2018-08-18T22:08:35.542Z,21.30
2018-08-18T22:11:04.296Z,21.30
2018-08-18T22:13:38.999Z,21.30
2018-08-18T22:16:07.544Z,21.20
2018-08-18T22:18:36.172Z,21.30
2018-08-18T22:21:09.429Z,21.30
2018-08-18T22:23:37.911Z,21.20
2018-08-18T22:26:10.602Z,21.20
2018-08-18T22:28:39.114Z,21.20
2018-08-18T22:31:07.594Z,21.20
2018-08-18T22:33:40.778Z,21.10
2018-08-18T22:36:09.376Z,21.20
2018-08-18T22:38:38.499Z,21.20
2018-08-18T22:41:07.330Z,21.10
2018-08-18T22:43:36.628Z,21.10
2018-08-18T22:46:05.181Z,21.10
2018-08-18T22:48:33.803Z,21.00
2018-08-18T22:51:02.333Z,21.00
2018-08-18T22:53:30.810Z,21.00
2018-08-18T22:56:01.391Z,20.90
2018-08-18T22:58:29.950Z,20.90
2018-08-18T23:00:58.437Z,20.90
2018-08-18T23:03:26.901Z,20.80
2018-08-18T23:05:56.414Z,20.80
2018-08-18T23:08:24.916Z,20.70
2018-08-18T23:10:53.449Z,20.70
2018-08-18T23:13:21.960Z,20.70
2018-08-18T23:15:50.582Z,20.70
2018-08-18T23:18:19.044Z,20.60
2018-08-18T23:20:47.593Z,20.60
2018-08-18T23:23:16.124Z,20.60
2018-08-18T23:25:44.640Z,20.60
2018-08-18T23:28:13.107Z,20.60
2018-08-18T23:30:43.053Z,20.50
2018-08-18T23:33:11.644Z,20.60
2018-08-18T23:35:40.163Z,20.60
2018-08-18T23:38:09.001Z,20.50
2018-08-18T23:40:37.561Z,20.40
2018-08-18T23:43:06.442Z,20.40
2018-08-18T23:45:40.901Z,20.40
2018-08-18T23:48:13.675Z,20.30
2018-08-18T23:50:43.466Z,20.20
2018-08-18T23:53:15.455Z,20.20
2018-08-18T23:55:54.868Z,20.20
2018-08-18T23:58:24.263Z,20.10
